sensor_id;sensor_type;location;lat;lon;timestamp;pressure;altitude;pressure_sealevel;temperature;humidity
57904;BME280;43720;47.462;19.030;2023-05-16T03:53:42;99825.22;;;13.80;100.00
57904;BME280;43720;47.462;19.030;2023-05-16T03:56:45;99822.66;;;13.73;100.00
57904;BME280;43720;47.462;19.030;2023-05-16T03:59:47;99831.50;;;13.59;100.00
57904;BME280;43720;47.462;19.030;2023-05-16T04:02:49;99821.91;;;13.51;100.00
57904;BME280;43720;47.462;19.030;2023-05-16T04:05:56;99828.06;;;13.48;100.00
57904;BME280;43720;47.462;19.030;2023-05-16T04:08:58;99830.75;;;13.40;100.00
57904;BME280;43720;47.462;19.030;2023-05-16T04:12:01;99821.13;;;13.35;100.00
57904;BME280;43720;47.462;19.030;2023-05-16T04:15:04;99814.84;;;13.62;100.00
57904;BME280;43720;47.462;19.030;2023-05-16T04:18:08;99840.25;;;13.63;100.00
57904;BME280;43720;47.462;19.030;2023-05-16T04:21:10;99854.28;;;13.54;100.00
57904;BME280;43720;47.462;19.030;2023-05-16T04:24:16;99835.75;;;13.76;100.00
57904;BME280;43720;47.462;19.030;2023-05-16T04:27:18;99834.84;;;13.83;100.00
57904;BME280;43720;47.462;19.030;2023-05-16T04:30:21;99837.53;;;13.75;100.00
57904;BME280;43720;47.462;19.030;2023-05-16T04:33:23;99852.41;;;13.73;100.00
57904;BME280;43720;47.462;19.030;2023-05-16T04:36:25;99856.78;;;13.74;100.00
57904;BME280;43720;47.462;19.030;2023-05-16T04:39:31;99848.00;;;13.80;100.00
57904;BME280;43720;47.462;19.030;2023-05-16T04:42:33;99846.22;;;13.82;100.00
57904;BME280;43720;47.462;19.030;2023-05-16T04:45:35;99858.56;;;13.69;100.00
57904;BME280;43720;47.462;19.030;2023-05-16T04:48:39;99856.00;;;13.63;100.00
57904;BME280;43720;47.462;19.030;2023-05-16T04:51:41;99858.59;;;13.66;100.00
57904;BME280;43720;47.462;19.030;2023-05-16T04:54:43;99852.47;;;13.65;100.00
57904;BME280;43720;47.462;19.030;2023-05-16T04:57:46;99867.34;;;13.68;100.00
57904;BME280;43720;47.462;19.030;2023-05-16T05:00:50;99865.53;;;13.73;100.00
57904;BME280;43720;47.462;19.030;2023-05-16T05:03:52;99873.34;;;13.84;100.00
57904;BME280;43720;47.462;19.030;2023-05-16T05:06:54;99875.97;;;13.87;100.00
57904;BME280;43720;47.462;19.030;2023-05-16T05:09:57;99867.16;;;13.89;100.00
57904;BME280;43720;47.462;19.030;2023-05-16T05:12:59;99864.50;;;13.97;100.00
57904;BME280;43720;47.462;19.030;2023-05-16T05:16:02;99872.37;;;13.99;100.00
57904;BME280;43720;47.462;19.030;2023-05-16T05:19:07;99883.81;;;13.90;100.00
57904;BME280;43720;47.462;19.030;2023-05-16T05:22:11;99887.34;;;13.86;100.00
57904;BME280;43720;47.462;19.030;2023-05-16T05:25:13;99870.69;;;13.88;100.00
57904;BME280;43720;47.462;19.030;2023-05-16T05:28:15;99862.78;;;13.93;100.00
57904;BME280;43720;47.462;19.030;2023-05-16T05:31:18;99872.41;;;13.95;100.00
57904;BME280;43720;47.462;19.030;2023-05-16T05:34:20;99865.44;;;13.88;100.00
57904;BME280;43720;47.462;19.030;2023-05-16T05:37:23;99868.06;;;13.91;100.00
57904;BME280;43720;47.462;19.030;2023-05-16T05:40:26;99872.41;;;13.94;100.00
57904;BME280;43720;47.462;19.030;2023-05-16T05:43:28;99867.09;;;14.00;100.00
57904;BME280;43720;47.462;19.030;2023-05-16T05:46:32;99861.00;;;13.97;100.00
57904;BME280;43720;47.462;19.030;2023-05-16T05:49:35;99858.41;;;13.89;100.00
57904;BME280;43720;47.462;19.030;2023-05-16T05:52:38;99861.00;;;13.98;100.00
57904;BME280;43720;47.462;19.030;2023-05-16T05:55:40;99867.94;;;14.04;100.00
57904;BME280;43720;47.462;19.030;2023-05-16T05:58:43;99869.59;;;14.15;100.00
57904;BME280;43720;47.462;19.030;2023-05-16T06:01:46;99869.72;;;14.00;100.00
57904;BME280;43720;47.462;19.030;2023-05-16T06:04:53;99863.53;;;14.07;100.00
57904;BME280;43720;47.462;19.030;2023-05-16T06:07:55;99862.75;;;13.99;100.00
57904;BME280;43720;47.462;19.030;2023-05-16T06:10:59;99855.78;;;13.89;100.00
57904;BME280;43720;47.462;19.030;2023-05-16T06:14:01;99844.34;;;13.96;100.00
57904;BME280;43720;47.462;19.030;2023-05-16T06:17:04;99844.34;;;13.99;100.00
57904;BME280;43720;47.462;19.030;2023-05-16T06:20:07;99848.66;;;14.06;100.00
57904;BME280;43720;47.462;19.030;2023-05-16T06:23:10;99850.41;;;14.04;100.00
57904;BME280;43720;47.462;19.030;2023-05-16T06:26:13;99852.19;;;14.04;100.00
57904;BME280;43720;47.462;19.030;2023-05-16T06:29:15;99844.19;;;14.17;100.00
57904;BME280;43720;47.462;19.030;2023-05-16T06:32:18;99834.53;;;14.19;100.00
57904;BME280;43720;47.462;19.030;2023-05-16T06:35:20;99835.47;;;14.09;100.00
57904;BME280;43720;47.462;19.030;2023-05-16T06:38:22;99837.22;;;14.13;100.00
57904;BME280;43720;47.462;19.030;2023-05-16T06:41:26;99831.97;;;14.12;100.00
57904;BME280;43720;47.462;19.030;2023-05-16T06:44:29;99832.91;;;14.03;100.00
57904;BME280;43720;47.462;19.030;2023-05-16T06:47:32;99833.81;;;14.02;100.00
57904;BME280;43720;47.462;19.030;2023-05-16T06:50:34;99842.56;;;14.01;100.00
57904;BME280;43720;47.462;19.030;2023-05-16T06:53:37;99846.00;;;14.08;100.00
57904;BME280;43720;47.462;19.030;2023-05-16T06:56:39;99843.34;;;14.09;100.00
57904;BME280;43720;47.462;19.030;2023-05-16T06:59:42;99846.94;;;14.04;100.00
57904;BME280;43720;47.462;19.030;2023-05-16T07:02:45;99846.94;;;14.04;100.00
57904;BME280;43720;47.462;19.030;2023-05-16T07:05:47;99850.41;;;14.04;100.00
57904;BME280;43720;47.462;19.030;2023-05-16T07:08:51;99840.75;;;14.08;100.00
57904;BME280;43720;47.462;19.030;2023-05-16T07:11:53;99849.53;;;14.07;100.00
57904;BME280;43720;47.462;19.030;2023-05-16T07:14:56;99853.94;;;14.06;100.00
57904;BME280;43720;47.462;19.030;2023-05-16T07:17:58;99853.06;;;14.03;100.00
57904;BME280;43720;47.462;19.030;2023-05-16T07:21:00;99853.09;;;14.00;100.00
57904;BME280;43720;47.462;19.030;2023-05-16T07:24:03;99837.28;;;14.01;100.00
57904;BME280;43720;47.462;19.030;2023-05-16T07:27:05;99835.59;;;13.97;100.00
57904;BME280;43720;47.462;19.030;2023-05-16T07:30:09;99825.06;;;13.97;100.00
57904;BME280;43720;47.462;19.030;2023-05-16T07:33:14;99828.59;;;13.93;100.00
57904;BME280;43720;47.462;19.030;2023-05-16T07:36:17;99834.66;;;14.01;100.00
57904;BME280;43720;47.462;19.030;2023-05-16T07:39:19;99825.09;;;13.95;100.00
57904;BME280;43720;47.462;19.030;2023-05-16T07:42:22;99834.78;;;13.89;100.00
57904;BME280;43720;47.462;19.030;2023-05-16T07:45:25;99832.97;;;13.95;100.00
57904;BME280;43720;47.462;19.030;2023-05-16T07:48:28;99833.87;;;13.90;100.00
57904;BME280;43720;47.462;19.030;2023-05-16T07:51:30;99822.50;;;13.94;100.00
57904;BME280;43720;47.462;19.030;2023-05-16T07:54:33;99829.44;;;14.00;100.00
57904;BME280;43720;47.462;19.030;2023-05-16T07:57:36;99827.69;;;14.00;100.00
57904;BME280;43720;47.462;19.030;2023-05-16T08:00:38;99826.88;;;13.92;100.00
57904;BME280;43720;47.462;19.030;2023-05-16T08:03:41;99829.47;;;13.93;100.00
57904;BME280;43720;47.462;19.030;2023-05-16T08:06:44;99823.41;;;13.87;100.00
57904;BME280;43720;47.462;19.030;2023-05-16T08:09:47;99831.31;;;13.87;100.00
57904;BME280;43720;47.462;19.030;2023-05-16T08:12:49;99830.44;;;13.85;100.00
57904;BME280;43720;47.462;19.030;2023-05-16T08:15:52;99829.53;;;13.90;100.00
57904;BME280;43720;47.462;19.030;2023-05-16T08:18:54;99831.34;;;13.81;100.00
57904;BME280;43720;47.462;19.030;2023-05-16T08:21:57;99833.06;;;13.85;100.00
57904;BME280;43720;47.462;19.030;2023-05-16T08:24:59;99842.69;;;13.84;100.00
57904;BME280;43720;47.462;19.030;2023-05-16T08:28:02;99830.38;;;13.92;100.00
57904;BME280;43720;47.462;19.030;2023-05-16T08:31:04;99827.78;;;13.88;100.00
57904;BME280;43720;47.462;19.030;2023-05-16T08:34:07;99828.66;;;13.88;100.00
57904;BME280;43720;47.462;19.030;2023-05-16T08:37:10;99814.66;;;13.85;100.00
57904;BME280;43720;47.462;19.030;2023-05-16T08:40:12;99806.81;;;13.80;100.00
57904;BME280;43720;47.462;19.030;2023-05-16T08:43:16;99809.50;;;13.73;100.00
57904;BME280;43720;47.462;19.030;2023-05-16T08:46:21;99814.78;;;13.71;100.00
57904;BME280;43720;47.462;19.030;2023-05-16T08:49:26;99813.84;;;13.78;100.00
57904;BME280;43720;47.462;19.030;2023-05-16T08:52:30;99818.22;;;13.82;100.00
57904;BME280;43720;47.462;19.030;2023-05-16T08:55:35;99819.09;;;13.80;100.00
57904;BME280;43720;47.462;19.030;2023-05-16T08:58:38;99820.81;;;13.84;100.00
57904;BME280;43720;47.462;19.030;2023-05-16T09:01:41;99817.31;;;13.82;100.00
57904;BME280;43720;47.462;19.030;2023-05-16T09:04:44;99808.56;;;13.78;100.00
57904;BME280;43720;47.462;19.030;2023-05-16T09:07:48;99818.22;;;13.82;100.00
57904;BME280;43720;47.462;19.030;2023-05-16T09:10:51;99819.09;;;13.77;100.00
57904;BME280;43720;47.462;19.030;2023-05-16T09:13:53;99808.63;;;13.74;100.00
57904;BME280;43720;47.462;19.030;2023-05-16T09:17:05;99805.06;;;13.81;100.00
57904;BME280;43720;47.462;19.030;2023-05-16T09:20:17;99802.41;;;13.84;100.00
57904;BME280;43720;47.462;19.030;2023-05-16T09:23:23;99808.53;;;13.87;100.00
57904;BME280;43720;47.462;19.030;2023-05-16T09:26:26;99807.59;;;13.94;100.00
57904;BME280;43720;47.462;19.030;2023-05-16T09:29:28;99809.34;;;13.94;100.00
57904;BME280;43720;47.462;19.030;2023-05-16T09:32:31;99805.75;;;14.03;100.00
57904;BME280;43720;47.462;19.030;2023-05-16T09:35:34;99788.16;;;14.09;100.00
57904;BME280;43720;47.462;19.030;2023-05-16T09:38:46;99796.88;;;14.16;100.00
57904;BME280;43720;47.462;19.030;2023-05-16T09:41:54;99795.13;;;14.15;100.00
57904;BME280;43720;47.462;19.030;2023-05-16T09:44:56;99800.38;;;14.16;100.00
57904;BME280;43720;47.462;19.030;2023-05-16T09:48:09;99806.50;;;14.17;100.00
57904;BME280;43720;47.462;19.030;2023-05-16T09:51:14;99807.41;;;14.14;100.00
57904;BME280;43720;47.462;19.030;2023-05-16T09:54:28;99802.09;;;14.19;100.00
57904;BME280;43720;47.462;19.030;2023-05-16T09:57:31;99795.13;;;14.18;100.00
57904;BME280;43720;47.462;19.030;2023-05-16T10:00:34;99797.72;;;14.19;100.00
57904;BME280;43720;47.462;19.030;2023-05-16T10:03:38;99803.87;;;14.18;100.00
57904;BME280;43720;47.462;19.030;2023-05-16T10:06:42;99805.66;;;14.15;100.00
57904;BME280;43720;47.462;19.030;2023-05-16T10:09:45;99797.72;;;14.19;100.00
57904;BME280;43720;47.462;19.030;2023-05-16T10:12:50;99795.87;;;14.29;100.00
57904;BME280;43720;47.462;19.030;2023-05-16T10:15:55;99802.91;;;14.27;100.00
57904;BME280;43720;47.462;19.030;2023-05-16T10:18:59;99801.22;;;14.22;100.00
57904;BME280;43720;47.462;19.030;2023-05-16T10:22:06;99789.72;;;14.30;100.00
57904;BME280;43720;47.462;19.030;2023-05-16T10:28:36;99780.19;;;14.22;100.00
57904;BME280;43720;47.462;19.030;2023-05-16T10:31:39;99775.78;;;14.22;100.00
57904;BME280;43720;47.462;19.030;2023-05-16T10:34:44;99764.34;;;14.25;100.00
57904;BME280;43720;47.462;19.030;2023-05-16T10:37:49;99760.84;;;14.29;100.00
57904;BME280;43720;47.462;19.030;2023-05-16T10:40:52;99773.97;;;14.29;100.00
57904;BME280;43720;47.462;19.030;2023-05-16T10:43:56;99777.44;;;14.31;100.00
57904;BME280;43720;47.462;19.030;2023-05-16T10:46:59;99777.41;;;14.32;100.00
57904;BME280;43720;47.462;19.030;2023-05-16T10:50:02;99776.53;;;14.35;100.00
57904;BME280;43720;47.462;19.030;2023-05-16T10:53:15;99756.34;;;14.35;100.00
57904;BME280;43720;47.462;19.030;2023-05-16T10:56:23;99744.06;;;14.40;100.00
57904;BME280;43720;47.462;19.030;2023-05-16T10:59:26;99736.06;;;14.47;100.00
57904;BME280;43720;47.462;19.030;2023-05-16T11:02:31;99733.44;;;14.50;100.00
57904;BME280;43720;47.462;19.030;2023-05-16T11:05:35;99731.59;;;14.58;100.00
57904;BME280;43720;47.462;19.030;2023-05-16T11:09:19;99721.00;;;14.62;100.00
57904;BME280;43720;47.462;19.030;2023-05-16T11:12:19;99718.37;;;14.64;100.00
57904;BME280;43720;47.462;19.030;2023-05-16T11:15:30;99721.00;;;14.64;100.00
57904;BME280;43720;47.462;19.030;2023-05-16T11:18:33;99700.78;;;14.66;100.00
57904;BME280;43720;47.462;19.030;2023-05-16T11:25:08;99675.13;;;14.82;100.00
57904;BME280;43720;47.462;19.030;2023-05-16T11:28:12;99682.13;;;14.84;100.00
57904;BME280;43720;47.462;19.030;2023-05-16T11:31:16;99682.03;;;14.92;100.00
57904;BME280;43720;47.462;19.030;2023-05-16T11:34:20;99686.44;;;14.90;100.00
57904;BME280;43720;47.462;19.030;2023-05-16T11:37:23;99697.81;;;14.92;100.00
57904;BME280;43720;47.462;19.030;2023-05-16T11:40:27;99702.19;;;14.93;100.00
57904;BME280;43720;47.462;19.030;2023-05-16T11:43:36;99689.91;;;14.92;100.00
57904;BME280;43720;47.462;19.030;2023-05-16T11:46:38;99682.00;;;14.93;100.00
57904;BME280;43720;47.462;19.030;2023-05-16T11:49:44;99680.09;;;15.03;100.00
57904;BME280;43720;47.462;19.030;2023-05-16T11:52:52;99678.41;;;14.99;100.00
57904;BME280;43720;47.462;19.030;2023-05-16T11:55:55;99674.00;;;15.00;100.00
57904;BME280;43720;47.462;19.030;2023-05-16T11:59:01;99662.50;;;15.07;100.00
57904;BME280;43720;47.462;19.030;2023-05-16T12:02:04;99664.31;;;15.03;100.00
57904;BME280;43720;47.462;19.030;2023-05-16T12:05:08;99662.50;;;15.05;100.00
57904;BME280;43720;47.462;19.030;2023-05-16T12:08:11;99658.81;;;15.19;100.00
57904;BME280;43720;47.462;19.030;2023-05-16T12:12:14;99650.72;;;15.29;100.00
57904;BME280;43720;47.462;19.030;2023-05-16T12:15:18;99655.97;;;15.29;100.00
57904;BME280;43720;47.462;19.030;2023-05-16T12:18:20;99662.97;;;15.32;100.00
57904;BME280;43720;47.462;19.030;2023-05-16T12:21:25;99659.38;;;15.37;100.00
57904;BME280;43720;47.462;19.030;2023-05-16T12:24:31;99668.16;;;15.38;100.00
57904;BME280;43720;47.462;19.030;2023-05-16T12:31:55;99675.16;;;15.39;100.00
57904;BME280;43720;47.462;19.030;2023-05-16T12:35:00;99677.75;;;15.40;100.00
57904;BME280;43720;47.462;19.030;2023-05-16T12:38:05;99671.56;;;15.43;100.00
57904;BME280;43720;47.462;19.030;2023-05-16T12:41:08;99655.72;;;15.46;100.00
57904;BME280;43720;47.462;19.030;2023-05-16T12:44:15;99660.78;;;15.58;100.00
57904;BME280;43720;47.462;19.030;2023-05-16T12:47:22;99664.34;;;15.54;100.00
57904;BME280;43720;47.462;19.030;2023-05-16T12:50:25;99673.16;;;15.53;100.00
57904;BME280;43720;47.462;19.030;2023-05-16T12:53:28;99672.34;;;15.50;100.00
57904;BME280;43720;47.462;19.030;2023-05-16T12:56:30;99665.22;;;15.55;100.00
57904;BME280;43720;47.462;19.030;2023-05-16T12:59:33;99664.31;;;15.56;100.00
57904;BME280;43720;47.462;19.030;2023-05-16T13:02:35;99661.75;;;15.53;100.00
57904;BME280;43720;47.462;19.030;2023-05-16T13:05:38;99646.69;;;15.59;100.00
57904;BME280;43720;47.462;19.030;2023-05-16T13:08:40;99645.88;;;15.57;100.00
57904;BME280;43720;47.462;19.030;2023-05-16T13:11:43;99645.88;;;15.57;100.00
57904;BME280;43720;47.462;19.030;2023-05-16T13:14:46;99643.16;;;15.62;100.00
57904;BME280;43720;47.462;19.030;2023-05-16T13:17:49;99629.00;;;15.68;100.00
57904;BME280;43720;47.462;19.030;2023-05-16T13:20:52;99630.69;;;15.72;100.00
57904;BME280;43720;47.462;19.030;2023-05-16T13:23:54;99625.47;;;15.70;100.00
57904;BME280;43720;47.462;19.030;2023-05-16T13:26:56;99601.75;;;15.70;100.00
57904;BME280;43720;47.462;19.030;2023-05-16T13:30:03;99604.44;;;15.64;100.00
57904;BME280;43720;47.462;19.030;2023-05-16T13:33:05;99600.94;;;15.67;100.00
57904;BME280;43720;47.462;19.030;2023-05-16T13:36:08;99593.88;;;15.69;100.00
57904;BME280;43720;47.462;19.030;2023-05-16T13:39:10;99584.13;;;15.74;100.00
57904;BME280;43720;47.462;19.030;2023-05-16T13:42:14;99571.69;;;15.79;100.00
57904;BME280;43720;47.462;19.030;2023-05-16T13:45:17;99570.75;;;15.83;100.00
57904;BME280;43720;47.462;19.030;2023-05-16T13:48:19;99570.69;;;15.86;100.00
57904;BME280;43720;47.462;19.030;2023-05-16T13:51:22;99579.44;;;15.88;100.00
57904;BME280;43720;47.462;19.030;2023-05-16T13:54:24;99581.03;;;15.95;100.00
57904;BME280;43720;47.462;19.030;2023-05-16T13:57:31;99584.41;;;16.03;100.00
57904;BME280;43720;47.462;19.030;2023-05-16T14:00:41;99575.53;;;16.07;100.00
57904;BME280;43720;47.462;19.030;2023-05-16T14:03:47;99562.94;;;16.20;100.00
57904;BME280;43720;47.462;19.030;2023-05-16T14:06:49;99557.56;;;16.25;100.00
57904;BME280;43720;47.462;19.030;2023-05-16T14:09:52;99559.13;;;16.35;100.00
57904;BME280;43720;47.462;19.030;2023-05-16T14:12:54;99552.00;;;16.38;100.00
57904;BME280;43720;47.462;19.030;2023-05-16T14:15:57;99560.72;;;16.42;100.00
57904;BME280;43720;47.462;19.030;2023-05-16T14:18:59;99556.25;;;16.46;100.00
57904;BME280;43720;47.462;19.030;2023-05-16T14:22:02;99566.78;;;16.46;100.00
57904;BME280;43720;47.462;19.030;2023-05-16T14:25:05;99560.72;;;16.42;100.00
57904;BME280;43720;47.462;19.030;2023-05-16T14:28:08;99561.56;;;16.43;100.00
57904;BME280;43720;47.462;19.030;2023-05-16T14:31:10;99564.34;;;16.36;100.00
57904;BME280;43720;47.462;19.030;2023-05-16T14:34:12;99569.78;;;16.29;100.00
57904;BME280;43720;47.462;19.030;2023-05-16T14:37:15;99581.19;;;16.29;100.00
57904;BME280;43720;47.462;19.030;2023-05-16T14:40:18;99580.34;;;16.29;100.00
57904;BME280;43720;47.462;19.030;2023-05-16T14:43:20;99591.84;;;16.26;100.00
57904;BME280;43720;47.462;19.030;2023-05-16T14:46:22;99583.94;;;16.25;100.00
57904;BME280;43720;47.462;19.030;2023-05-16T14:49:25;99592.88;;;16.19;100.00
57904;BME280;43720;47.462;19.030;2023-05-16T14:52:27;99586.56;;;16.25;100.00
57904;BME280;43720;47.462;19.030;2023-05-16T14:55:30;99585.50;;;16.33;100.00
57904;BME280;43720;47.462;19.030;2023-05-16T14:58:32;99587.59;;;16.19;100.00
57904;BME280;43720;47.462;19.030;2023-05-16T15:01:34;99581.50;;;16.16;100.00
57904;BME280;43720;47.462;19.030;2023-05-16T15:04:37;99577.38;;;16.04;100.00
57904;BME280;43720;47.462;19.030;2023-05-16T15:07:39;99588.78;;;16.03;100.00
57904;BME280;43720;47.462;19.030;2023-05-16T15:10:42;99592.06;;;16.16;100.00
57904;BME280;43720;47.462;19.030;2023-05-16T15:13:44;99596.69;;;16.04;100.00
57904;BME280;43720;47.462;19.030;2023-05-16T15:16:46;99594.25;;;15.94;100.00
